sensor_id;sensor_type;location;lat;lon;timestamp;pressure;altitude;pressure_sealevel;temperature;humidity
43691;BME280;29293;52.190;21.226;2023-05-29T00:38:53;100669.41;;;7.75;100.00
43691;BME280;29293;52.190;21.226;2023-05-29T00:54:01;100674.57;;;7.09;100.00
43691;BME280;29293;52.190;21.226;2023-05-29T01:09:08;100680.06;;;6.70;100.00
43691;BME280;29293;52.190;21.226;2023-05-29T01:24:18;100677.70;;;6.42;100.00
43691;BME280;29293;52.190;21.226;2023-05-29T02:04:12;100673.60;;;6.34;100.00
43691;BME280;29293;52.190;21.226;2023-05-29T02:34:43;100646.23;;;5.65;100.00
43691;BME280;29293;52.190;21.226;2023-05-29T02:49:50;100633.50;;;5.53;100.00
43691;BME280;29293;52.190;21.226;2023-05-29T03:04:57;100633.61;;;5.47;100.00
43691;BME280;29293;52.190;21.226;2023-05-29T03:20:05;100641.27;;;5.52;100.00
43691;BME280;29293;52.190;21.226;2023-05-29T03:35:13;100642.35;;;5.68;100.00
43691;BME280;29293;52.190;21.226;2023-05-29T03:50:20;100651.83;;;5.99;100.00
43691;BME280;29293;52.190;21.226;2023-05-29T04:05:27;100660.36;;;6.35;100.00
43691;BME280;29293;52.190;21.226;2023-05-29T04:20:34;100672.88;;;6.87;100.00
43691;BME280;29293;52.190;21.226;2023-05-29T04:35:41;100669.59;;;7.53;100.00
43691;BME280;29293;52.190;21.226;2023-05-29T04:50:49;100665.59;;;8.18;100.00
43691;BME280;29293;52.190;21.226;2023-05-29T05:05:56;100668.48;;;8.87;100.00
43691;BME280;29293;52.190;21.226;2023-05-29T05:58:22;100662.79;;;11.90;100.00
43691;BME280;29293;52.190;21.226;2023-05-29T06:13:29;100662.87;;;12.87;100.00
43691;BME280;29293;52.190;21.226;2023-05-29T06:28:36;100664.02;;;13.46;100.00
43691;BME280;29293;52.190;21.226;2023-05-29T06:43:43;100664.17;;;14.34;100.00
43691;BME280;29293;52.190;21.226;2023-05-29T06:58:52;100654.77;;;16.42;100.00
43691;BME280;29293;52.190;21.226;2023-05-29T07:13:59;100654.83;;;18.35;100.00
43691;BME280;29293;52.190;21.226;2023-05-29T07:29:06;100662.26;;;19.23;100.00
43691;BME280;29293;52.190;21.226;2023-05-29T07:44:13;100666.45;;;19.65;100.00
43691;BME280;29293;52.190;21.226;2023-05-29T07:59:20;100660.23;;;19.97;99.37
43691;BME280;29293;52.190;21.226;2023-05-29T08:14:27;100661.85;;;20.27;84.51
43691;BME280;29293;52.190;21.226;2023-05-29T08:29:35;100665.27;;;20.76;63.06
43691;BME280;29293;52.190;21.226;2023-05-29T08:44:48;100663.88;;;20.92;56.18
43691;BME280;29293;52.190;21.226;2023-05-29T08:59:56;100662.31;;;21.38;52.48
43691;BME280;29293;52.190;21.226;2023-05-29T09:15:06;100654.96;;;21.49;47.00
43691;BME280;29293;52.190;21.226;2023-05-29T09:30:34;100646.33;;;21.46;42.91
43691;BME280;29293;52.190;21.226;2023-05-29T09:45:41;100639.29;;;21.98;42.24
43691;BME280;29293;52.190;21.226;2023-05-29T10:00:49;100629.09;;;22.36;41.22
43691;BME280;29293;52.190;21.226;2023-05-29T10:15:57;100624.73;;;22.40;40.59
43691;BME280;29293;52.190;21.226;2023-05-29T10:31:09;100617.39;;;22.63;39.18
43691;BME280;29293;52.190;21.226;2023-05-29T10:46:20;100610.92;;;22.93;37.72
43691;BME280;29293;52.190;21.226;2023-05-29T11:01:30;100604.33;;;23.66;36.03
43691;BME280;29293;52.190;21.226;2023-05-29T11:16:40;100586.95;;;23.77;34.55
43691;BME280;29293;52.190;21.226;2023-05-29T11:31:48;100585.27;;;22.58;35.88
43691;BME280;29293;52.190;21.226;2023-05-29T11:47:03;100572.63;;;22.73;37.31
43691;BME280;29293;52.190;21.226;2023-05-29T12:02:11;100562.40;;;22.57;37.66
43691;BME280;29293;52.190;21.226;2023-05-29T12:17:18;100551.48;;;24.17;36.26
43691;BME280;29293;52.190;21.226;2023-05-29T12:32:24;100543.71;;;23.62;35.76
43691;BME280;29293;52.190;21.226;2023-05-29T12:47:46;100535.76;;;23.76;35.15
43691;BME280;29293;52.190;21.226;2023-05-29T13:02:53;100534.59;;;23.27;35.46
43691;BME280;29293;52.190;21.226;2023-05-29T13:18:01;100520.79;;;22.88;36.77
43691;BME280;29293;52.190;21.226;2023-05-29T13:33:08;100501.95;;;22.75;37.12
43691;BME280;29293;52.190;21.226;2023-05-29T13:48:15;100495.97;;;23.10;36.97
43691;BME280;29293;52.190;21.226;2023-05-29T14:03:22;100494.03;;;22.46;36.80
43691;BME280;29293;52.190;21.226;2023-05-29T14:18:34;100490.40;;;22.20;37.41
43691;BME280;29293;52.190;21.226;2023-05-29T14:33:40;100482.19;;;22.44;39.31
43691;BME280;29293;52.190;21.226;2023-05-29T14:48:47;100468.48;;;22.64;38.04
43691;BME280;29293;52.190;21.226;2023-05-29T15:03:54;100459.27;;;23.04;38.49
43691;BME280;29293;52.190;21.226;2023-05-29T15:19:01;100452.64;;;23.14;37.46
43691;BME280;29293;52.190;21.226;2023-05-29T15:34:09;100449.65;;;22.85;36.92
43691;BME280;29293;52.190;21.226;2023-05-29T18:52:50;100467.29;;;18.66;48.57
43691;BME280;29293;52.190;21.226;2023-05-29T19:07:57;100483.52;;;16.87;53.22
43691;BME280;29293;52.190;21.226;2023-05-29T19:23:06;100498.42;;;16.50;55.98
43691;BME280;29293;52.190;21.226;2023-05-29T19:38:13;100511.77;;;16.49;57.11
43691;BME280;29293;52.190;21.226;2023-05-29T19:53:20;100521.34;;;16.44;58.07
43691;BME280;29293;52.190;21.226;2023-05-29T20:08:30;100523.34;;;16.36;59.07
43691;BME280;29293;52.190;21.226;2023-05-29T20:23:37;100535.88;;;16.19;59.83
43691;BME280;29293;52.190;21.226;2023-05-29T20:38:46;100544.40;;;15.96;60.85
43691;BME280;29293;52.190;21.226;2023-05-29T20:53:53;100553.66;;;15.78;62.93
43691;BME280;29293;52.190;21.226;2023-05-29T21:24:24;100559.10;;;15.90;62.64
43691;BME280;29293;52.190;21.226;2023-05-29T21:39:31;100559.52;;;15.94;62.42
43691;BME280;29293;52.190;21.226;2023-05-29T21:54:38;100559.02;;;15.83;62.74
43691;BME280;29293;52.190;21.226;2023-05-29T22:09:45;100556.30;;;15.62;63.25
43691;BME280;29293;52.190;21.226;2023-05-29T22:24:52;100556.11;;;15.40;64.14
43691;BME280;29293;52.190;21.226;2023-05-29T22:39:58;100561.87;;;15.14;65.83
43691;BME280;29293;52.190;21.226;2023-05-29T22:55:06;100573.64;;;14.88;67.92
43691;BME280;29293;52.190;21.226;2023-05-29T23:10:13;100556.58;;;14.63;70.39
43691;BME280;29293;52.190;21.226;2023-05-29T23:25:20;100556.90;;;14.44;71.51
43691;BME280;29293;52.190;21.226;2023-05-29T23:40:27;100549.02;;;14.18;73.91
43691;BME280;29293;52.190;21.226;2023-05-29T23:55:36;100557.70;;;13.91;76.87
